map of WMI home
WMI - Airport
Location
City:  Nowy Dwór Mazowiecki, Mazowieckie, Poland
Near (Alt.):Modlin, Warsaw
Name:Warsaw-Modlin Airport
ICAO:EPMO
IATA:WMI

Details
Type:Airport (Aerodrome, Airfield)
Use:Public/Civil
Latitude:52°27'04"N (52.451131)
Longitude:20°39'07"E (20.651894)
Elevation:341 ft (104 m)
Variation:5.77°E (WMM2015 magnetic declination)
0.13° annual change
Runways:1
Longest:8202 × 197 ft (2500 × 60 m), paved

Time
Time Zone:UTC+1 (DST+2)
Local Time:

Weather
METAR:EPMO 140200Z 14009KT 110V170 CAVOK M01/M03 Q1000
TAF:EPMO 132330Z 1400/1424 17010KT CAVOK
BECMG 1404/1406 17015G28KT BKN014
TEMPO 1406/1410 2000 SN SNRA BKN005
BECMG 1409/1412 23010KT
TEMPO 1410/1412 4000 RA RASN BR BKN007

Related Locations
Nearby:
Farthest:CHT: 11448 mi / 18425 km
Waitangi [Tuuta], CIT, NZ

Find:

   beyond  
but within

Other Information
Maps:
NOTAMs:
Links:
Sources:

  
flag of Poland
flag of Mazowieckie
flag of Nowy Dwór Mazowiecki
  

Sectional Chart

Flight Planning
at skyvector.com

Satellite Image

Google Maps Satellite view

 

Copyright © 2004-2017 Karl L. Swartz. All rights reserved.
The Great Circle Mapper name and logo are trademarks of the Great Circle Mapper.
All other trademarks mentioned herein belong to their respective owners.
Please see credits for attibutions and further copyright information.

  Follow gcmap on Facebook Follow gcmap on Twitter Follow gcmap on Google+ GCmap on LinkedIn

hCard Microformat

Geo Microformat